Time;durP1;ratioP1;P1;durP2;ratioP2;P2;SDS_P1;SDS_P2;PMS_P1;PMS_P2;Temp;Humidity;BMP_temperature;BMP_pressure;BME280_temperature;BME280_humidity;BME280_pressure;Samples;Min_cycle;Max_cycle;Signal;HPM_P1;HPM_P2
2022/09/12 00:00:41;;;;;;;6.32;5.13;;;13.30;99.90;;;;;;5022739;28;20129;-77
2022/09/12 00:03:07;;;;;;;6.03;5.30;;;13.30;99.90;;;;;;5038682;28;20109;-76
2022/09/12 00:05:33;;;;;;;6.65;4.93;;;13.30;99.90;;;;;;5024862;28;20030;-76
2022/09/12 00:07:59;;;;;;;5.18;4.68;;;13.30;99.90;;;;;;5023236;28;20041;-77
2022/09/12 00:10:25;;;;;;;5.90;5.10;;;13.30;99.90;;;;;;5034130;28;20021;-76
2022/09/12 00:12:51;;;;;;;5.78;5.15;;;13.30;99.90;;;;;;5040789;28;20030;-79
2022/09/12 00:15:17;;;;;;;6.38;4.80;;;13.30;99.90;;;;;;5037689;28;20022;-75
2022/09/12 00:17:43;;;;;;;6.05;5.45;;;13.30;99.90;;;;;;5025264;28;20638;-75
2022/09/12 00:20:10;;;;;;;6.07;5.40;;;13.30;99.90;;;;;;5024143;28;20087;-77
2022/09/12 00:22:37;;;;;;;6.43;5.32;;;13.10;99.90;;;;;;5021981;28;20486;-74
2022/09/12 00:25:04;;;;;;;6.50;5.82;;;13.20;99.90;;;;;;5011606;28;20025;-77
2022/09/12 00:27:30;;;;;;;5.85;5.20;;;13.10;99.90;;;;;;5025591;28;20036;-77
2022/09/12 00:29:55;;;;;;;5.95;5.40;;;13.20;99.90;;;;;;5038545;28;20533;-79
2022/09/12 00:32:21;;;;;;;5.72;5.10;;;13.10;99.90;;;;;;5023267;28;20063;-77
2022/09/12 00:34:47;;;;;;;7.70;5.85;;;13.20;99.90;;;;;;5024860;28;20026;-75
2022/09/12 00:37:13;;;;;;;6.65;5.45;;;13.10;99.90;;;;;;5022569;28;20033;-77
2022/09/12 00:39:39;;;;;;;5.97;5.38;;;13.00;99.90;;;;;;5023449;28;20088;-78
2022/09/12 00:42:05;;;;;;;7.10;6.40;;;13.00;99.90;;;;;;5038514;28;20022;-76
2022/09/12 00:44:33;;;;;;;6.43;5.82;;;13.10;99.90;;;;;;5037831;28;20052;-75
2022/09/12 00:47:12;;;;;;;6.88;5.70;;;13.00;99.90;;;;;;5021718;28;20025;-78
2022/09/12 00:49:50;;;;;;;6.35;5.75;;;13.00;99.90;;;;;;5017843;28;20026;-78
2022/09/12 00:52:28;;;;;;;5.47;4.97;;;13.00;99.90;;;;;;5021301;28;20065;-74
2022/09/12 00:55:06;;;;;;;7.30;6.47;;;13.00;99.90;;;;;;5020691;28;20091;-76
2022/09/12 00:57:38;;;;;;;6.05;5.43;;;12.90;99.90;;;;;;5020797;28;20104;-76
2022/09/12 01:00:24;;;;;;;5.20;4.70;;;12.90;99.90;;;;;;5022426;28;20477;-76
2022/09/12 01:02:55;;;;;;;6.03;5.43;;;12.80;99.90;;;;;;5023021;28;20493;-77
2022/09/12 01:05:23;;;;;;;6.20;5.30;;;12.90;99.90;;;;;;5023383;28;20564;-77
2022/09/12 01:07:50;;;;;;;6.55;5.18;;;13.00;99.90;;;;;;5051266;28;20099;-75
2022/09/12 01:10:17;;;;;;;5.57;5.05;;;12.90;99.90;;;;;;5012377;28;20121;-78
2022/09/12 01:12:43;;;;;;;5.60;5.07;;;12.70;99.90;;;;;;5027798;28;20164;-77
2022/09/12 01:15:09;;;;;;;6.00;5.40;;;12.70;99.90;;;;;;5043292;28;20545;-75
2022/09/12 01:18:00;;;;;;;5.43;4.93;;;12.70;99.90;;;;;;5027445;28;20112;-79
2022/09/12 01:20:45;;;;;;;5.93;5.03;;;12.80;99.90;;;;;;5057205;28;20041;-78
2022/09/12 01:23:19;;;;;;;5.43;4.82;;;12.80;99.90;;;;;;5026892;28;20060;-76
2022/09/12 01:26:04;;;;;;;6.05;5.45;;;12.80;99.90;;;;;;5028613;28;20541;-75
2022/09/12 01:28:39;;;;;;;5.95;5.35;;;12.70;99.90;;;;;;5026358;28;20489;-77
2022/09/12 01:31:28;;;;;;;5.78;5.13;;;12.60;99.90;;;;;;5030710;28;20038;-76
2022/09/12 01:34:08;;;;;;;7.22;6.35;;;12.70;99.90;;;;;;5028429;28;20053;-78
2022/09/12 01:36:44;;;;;;;5.93;5.07;;;12.60;99.90;;;;;;5059221;28;20029;-78
2022/09/12 01:39:29;;;;;;;6.20;5.38;;;12.50;99.90;;;;;;5059607;28;20033;-76
2022/09/12 01:42:20;;;;;;;5.43;4.32;;;12.50;99.90;;;;;;5024575;28;20036;-79
2022/09/12 01:44:54;;;;;;;6.05;5.32;;;12.60;99.90;;;;;;5057071;28;20025;-77
2022/09/12 01:47:39;;;;;;;6.32;5.13;;;12.50;99.90;;;;;;5056712;28;20092;-76
2022/09/12 01:50:12;;;;;;;6.85;5.40;;;12.50;99.90;;;;;;5061059;28;20029;-75
2022/09/12 01:52:47;;;;;;;6.72;5.75;;;12.60;99.90;;;;;;5059272;28;20129;-79
2022/09/12 01:55:24;;;;;;;6.68;5.32;;;12.40;99.90;;;;;;5024612;28;20060;-75
2022/09/12 01:57:50;;;;;;;5.55;4.47;;;12.40;99.90;;;;;;5025980;28;20120;-79
2022/09/12 02:00:16;;;;;;;6.05;5.45;;;12.50;99.90;;;;;;5040689;28;20080;-76
2022/09/12 02:02:55;;;;;;;7.43;5.63;;;12.50;99.90;;;;;;5027383;28;20029;-77
2022/09/12 02:05:33;;;;;;;5.43;4.63;;;12.40;99.90;;;;;;5040845;28;20068;-76
2022/09/12 02:08:04;;;;;;;6.45;5.82;;;12.40;99.90;;;;;;5060182;28;20030;-74
2022/09/12 02:10:34;;;;;;;6.63;5.30;;;12.40;99.90;;;;;;5021659;28;20045;-75
2022/09/12 02:13:07;;;;;;;7.30;5.82;;;12.40;99.90;;;;;;5025402;28;20076;-75
2022/09/12 02:15:50;;;;;;;7.07;5.70;;;12.40;99.90;;;;;;5025829;28;20029;-76
2022/09/12 02:18:20;;;;;;;6.93;5.90;;;12.40;99.90;;;;;;5020369;28;20029;-77
2022/09/12 02:20:47;;;;;;;7.50;5.20;;;12.40;99.90;;;;;;5023819;28;20041;-79
2022/09/12 02:23:21;;;;;;;7.30;6.20;;;12.30;99.90;;;;;;5023237;28;20047;-75
2022/09/12 02:25:51;;;;;;;6.35;5.43;;;12.30;99.90;;;;;;5057520;28;20029;-76
2022/09/12 02:28:28;;;;;;;7.00;5.30;;;12.20;99.90;;;;;;5025800;28;20021;-75
2022/09/12 02:31:04;;;;;;;6.85;5.97;;;12.40;99.90;;;;;;5030499;28;20481;-76
2022/09/12 02:33:36;;;;;;;6.82;5.47;;;12.40;99.90;;;;;;5023369;28;20021;-79
2022/09/12 02:36:16;;;;;;;6.47;5.80;;;12.20;99.90;;;;;;5023117;28;20453;-77
2022/09/12 02:38:47;;;;;;;8.07;5.30;;;12.20;99.90;;;;;;5055589;28;20064;-76
2022/09/12 02:41:18;;;;;;;6.13;5.18;;;12.00;99.90;;;;;;5040424;28;20041;-76
2022/09/12 02:43:44;;;;;;;8.18;5.80;;;12.00;99.90;;;;;;5055992;28;20033;-75
2022/09/12 02:46:14;;;;;;;5.32;4.82;;;12.10;99.90;;;;;;5057508;28;20460;-78
2022/09/12 02:48:42;;;;;;;6.47;5.20;;;12.20;99.90;;;;;;5025364;28;20025;-75
2022/09/12 02:51:10;;;;;;;6.68;5.90;;;12.00;99.90;;;;;;5039954;28;20040;-76
2022/09/12 02:53:36;;;;;;;6.05;5.15;;;12.00;99.90;;;;;;5023329;28;20033;-76
2022/09/12 02:56:07;;;;;;;5.80;5.18;;;12.20;99.90;;;;;;5026331;28;20116;-78
2022/09/12 02:58:33;;;;;;;6.28;5.20;;;12.20;99.90;;;;;;5026922;28;20056;-76
2022/09/12 03:01:04;;;;;;;8.63;5.47;;;12.10;99.90;;;;;;5024911;28;20438;-78
2022/09/12 03:03:30;;;;;;;6.68;5.40;;;12.10;99.90;;;;;;5024057;28;20367;-79
2022/09/12 03:06:01;;;;;;;5.32;4.82;;;12.10;99.90;;;;;;5022716;28;20120;-76
2022/09/12 03:08:52;;;;;;;5.72;5.15;;;12.00;99.90;;;;;;5021066;28;20032;-76
2022/09/12 03:11:46;;;;;;;5.47;4.53;;;12.00;99.90;;;;;;5022786;28;20045;-76
2022/09/12 03:14:44;;;;;;;5.93;5.22;;;11.90;99.90;;;;;;5040027;28;20049;-75
2022/09/12 03:17:35;;;;;;;5.55;4.60;;;11.90;99.90;;;;;;5023812;28;20034;-76
2022/09/12 03:20:15;;;;;;;5.93;4.88;;;11.80;99.90;;;;;;5021974;28;20033;-78
2022/09/12 03:22:52;;;;;;;6.93;5.10;;;11.80;99.90;;;;;;5022155;28;20527;-78
2022/09/12 03:25:27;;;;;;;7.32;5.05;;;11.90;99.90;;;;;;5036198;28;20026;-78
2022/09/12 03:28:10;;;;;;;6.18;5.25;;;12.00;99.90;;;;;;5024084;28;20029;-75
2022/09/12 03:30:45;;;;;;;6.93;5.85;;;12.10;99.90;;;;;;5056861;28;20059;-77
2022/09/12 03:33:18;;;;;;;7.18;5.63;;;11.90;99.90;;;;;;5024429;28;20040;-77
2022/09/12 03:35:45;;;;;;;6.15;5.38;;;11.90;99.90;;;;;;5020694;28;20032;-79
2022/09/12 03:38:11;;;;;;;8.00;6.53;;;11.90;99.90;;;;;;5018895;28;20112;-78
2022/09/12 03:40:37;;;;;;;7.10;5.47;;;11.90;99.90;;;;;;5024715;28;20124;-76
2022/09/12 03:43:05;;;;;;;7.07;5.65;;;11.90;99.90;;;;;;5020385;28;20030;-78
2022/09/12 03:45:30;;;;;;;7.32;5.80;;;11.90;99.90;;;;;;5034038;28;20497;-77
2022/09/12 03:47:56;;;;;;;6.75;6.05;;;11.90;99.90;;;;;;5025290;28;20025;-75
2022/09/12 03:50:22;;;;;;;7.68;6.13;;;11.70;99.90;;;;;;5024368;28;20033;-78
2022/09/12 03:52:48;;;;;;;6.35;5.68;;;11.70;99.90;;;;;;5038611;28;20087;-78
2022/09/12 03:55:14;;;;;;;6.78;6.07;;;11.80;99.90;;;;;;5022399;28;20133;-78
2022/09/12 03:57:40;;;;;;;6.63;5.45;;;11.80;99.90;;;;;;5039195;28;20025;-76
2022/09/12 04:00:07;;;;;;;6.03;4.97;;;11.70;99.90;;;;;;5017125;28;20044;-79
2022/09/12 04:02:38;;;;;;;5.93;5.32;;;11.70;99.90;;;;;;5032084;28;20112;-79
2022/09/12 04:05:04;;;;;;;8.00;5.65;;;11.80;99.90;;;;;;5056491;28;20446;-76
2022/09/12 04:07:30;;;;;;;5.80;5.18;;;11.70;99.90;;;;;;5021927;28;20021;-75
2022/09/12 04:09:56;;;;;;;6.95;5.40;;;11.70;99.90;;;;;;5040467;28;20098;-78
2022/09/12 04:12:22;;;;;;;7.00;5.50;;;11.70;99.90;;;;;;5024239;28;20025;-75
2022/09/12 04:14:48;;;;;;;5.75;4.97;;;11.80;99.90;;;;;;5056087;28;20029;-77
2022/09/12 04:17:15;;;;;;;5.15;4.35;;;11.80;99.90;;;;;;5025329;28;20033;-77
2022/09/12 04:19:40;;;;;;;6.57;5.25;;;11.80;99.90;;;;;;5038032;28;20033;-75
2022/09/12 04:22:06;;;;;;;5.95;4.85;;;11.80;99.90;;;;;;5056938;28;20040;-78
2022/09/12 04:24:32;;;;;;;5.95;4.70;;;11.80;99.90;;;;;;5024316;28;20026;-76
2022/09/12 04:26:58;;;;;;;6.53;5.25;;;11.90;99.90;;;;;;5023877;28;20025;-78
2022/09/12 04:29:23;;;;;;;7.35;5.28;;;11.80;99.90;;;;;;5039522;28;20029;-78
2022/09/12 04:31:49;;;;;;;7.13;5.18;;;11.70;99.90;;;;;;5023879;28;20044;-76
2022/09/12 04:34:15;;;;;;;6.57;5.63;;;11.60;99.90;;;;;;5023071;28;20017;-76
2022/09/12 04:36:41;;;;;;;7.32;5.28;;;11.70;99.90;;;;;;5055205;28;20374;-75
2022/09/12 04:39:07;;;;;;;6.57;5.05;;;11.60;99.90;;;;;;5027266;28;20021;-77
2022/09/12 04:41:36;;;;;;;6.25;5.05;;;11.60;99.90;;;;;;5021654;28;20057;-78
2022/09/12 04:44:05;;;;;;;7.72;5.95;;;11.80;99.90;;;;;;5039489;28;20301;-78
2022/09/12 04:46:35;;;;;;;6.57;4.72;;;11.70;99.90;;;;;;5060692;28;20083;-76
2022/09/12 04:49:00;;;;;;;6.65;5.60;;;11.60;99.90;;;;;;5023728;28;20025;-75
2022/09/12 04:51:29;;;;;;;6.07;5.28;;;11.70;99.90;;;;;;5041762;28;20025;-78
2022/09/12 04:53:57;;;;;;;8.63;6.03;;;11.70;99.90;;;;;;5059655;28;20025;-75
2022/09/12 04:56:24;;;;;;;9.13;5.10;;;11.90;99.90;;;;;;5024466;28;20550;-75
2022/09/12 04:58:51;;;;;;;8.15;5.97;;;11.90;99.90;;;;;;5026866;28;20049;-76
2022/09/12 05:01:19;;;;;;;9.50;6.03;;;11.90;99.90;;;;;;5036107;28;20049;-76
2022/09/12 05:03:47;;;;;;;7.88;5.95;;;11.80;99.90;;;;;;5056473;28;20025;-77
2022/09/12 05:06:15;;;;;;;7.07;5.30;;;11.90;99.90;;;;;;5058903;28;20038;-76
2022/09/12 05:08:41;;;;;;;8.32;6.20;;;11.90;99.90;;;;;;5039087;28;20022;-79
2022/09/12 05:11:13;;;;;;;9.50;5.95;;;12.00;99.90;;;;;;5022696;28;20058;-77
2022/09/12 05:13:39;;;;;;;8.73;6.00;;;12.10;99.90;;;;;;5025898;28;20038;-75
2022/09/12 05:16:06;;;;;;;9.73;6.88;;;12.10;99.90;;;;;;5036881;28;20068;-76
2022/09/12 05:18:34;;;;;;;8.18;5.90;;;12.00;99.90;;;;;;5053527;28;20232;-78
2022/09/12 05:21:01;;;;;;;8.27;6.47;;;12.00;99.90;;;;;;5027173;28;20033;-75
2022/09/12 05:23:27;;;;;;;13.65;7.35;;;12.00;99.90;;;;;;5023175;28;20486;-77
2022/09/12 05:25:55;;;;;;;8.43;6.10;;;12.10;99.90;;;;;;5019953;28;20033;-79
2022/09/12 05:28:22;;;;;;;9.90;6.55;;;12.10;99.90;;;;;;5057917;28;20057;-78
2022/09/12 05:30:58;;;;;;;8.00;6.22;;;12.10;99.90;;;;;;5041901;28;20033;-78
2022/09/12 05:33:25;;;;;;;7.82;6.40;;;12.30;99.90;;;;;;5058319;28;20076;-79
2022/09/12 05:35:51;;;;;;;10.38;6.25;;;12.20;99.90;;;;;;5041500;28;20030;-76
2022/09/12 05:38:20;;;;;;;9.30;6.70;;;12.30;99.90;;;;;;5024319;28;20030;-79
2022/09/12 05:40:45;;;;;;;8.45;6.45;;;12.20;99.90;;;;;;5022548;28;20045;-77
2022/09/12 05:43:11;;;;;;;9.65;6.82;;;12.30;99.90;;;;;;5041177;28;20040;-80
2022/09/12 05:45:37;;;;;;;10.68;7.30;;;12.60;99.90;;;;;;5058780;28;20038;-77
2022/09/12 05:48:03;;;;;;;8.63;6.68;;;12.60;99.90;;;;;;5025981;28;20021;-79
2022/09/12 05:50:29;;;;;;;12.07;6.47;;;12.60;99.90;;;;;;5025509;28;20040;-80
2022/09/12 05:52:56;;;;;;;12.45;8.38;;;12.70;99.90;;;;;;5026839;28;20021;-79
2022/09/12 05:55:23;;;;;;;13.00;8.45;;;12.60;99.90;;;;;;5026251;28;20117;-80
2022/09/12 05:57:49;;;;;;;11.73;8.00;;;12.70;99.90;;;;;;5041582;28;20497;-79
2022/09/12 06:00:16;;;;;;;13.07;7.95;;;12.80;99.90;;;;;;5056529;28;20478;-75
2022/09/12 06:02:42;;;;;;;12.10;7.57;;;12.80;99.90;;;;;;5056756;28;21184;-77
2022/09/12 06:05:08;;;;;;;12.52;8.63;;;12.90;99.90;;;;;;5040637;28;20029;-77
2022/09/12 06:07:34;;;;;;;14.55;9.68;;;12.90;99.90;;;;;;5023827;28;20021;-76
2022/09/12 06:10:01;;;;;;;13.57;9.35;;;13.00;99.90;;;;;;5025560;28;20060;-79
2022/09/12 06:12:30;;;;;;;14.43;9.60;;;13.00;99.90;;;;;;5052707;28;20524;-78
2022/09/12 06:14:55;;;;;;;14.98;10.52;;;13.10;99.90;;;;;;5025443;28;20037;-79
2022/09/12 06:17:21;;;;;;;20.50;12.18;;;13.20;99.90;;;;;;5024021;28;20381;-79
2022/09/12 06:19:49;;;;;;;19.63;11.65;;;13.30;99.90;;;;;;5025570;28;20099;-79
2022/09/12 06:22:15;;;;;;;21.85;12.20;;;13.40;99.90;;;;;;5017394;28;20025;-78
2022/09/12 06:24:40;;;;;;;20.20;12.30;;;13.40;99.90;;;;;;5036698;28;20475;-78
2022/09/12 06:27:06;;;;;;;19.90;12.63;;;13.50;99.90;;;;;;5017971;28;20108;-77
2022/09/12 06:29:32;;;;;;;18.88;11.60;;;13.50;99.90;;;;;;5025615;28;20032;-79
2022/09/12 06:31:57;;;;;;;20.67;13.23;;;13.70;99.90;;;;;;5006625;28;20025;-78
2022/09/12 06:34:25;;;;;;;22.17;12.70;;;13.80;99.90;;;;;;5004934;28;20382;-76
2022/09/12 06:36:51;;;;;;;21.80;13.30;;;13.80;99.90;;;;;;5024574;28;20030;-79
2022/09/12 06:39:19;;;;;;;23.10;13.48;;;13.80;99.90;;;;;;5023819;28;20492;-77
2022/09/12 06:41:47;;;;;;;20.48;12.95;;;13.90;99.90;;;;;;5024785;28;20491;-79
2022/09/12 06:44:18;;;;;;;19.83;13.32;;;14.00;99.90;;;;;;5025131;28;20044;-77
2022/09/12 06:46:44;;;;;;;19.52;12.95;;;14.00;99.90;;;;;;5023195;28;20044;-78
2022/09/12 06:49:10;;;;;;;21.02;12.80;;;14.10;99.90;;;;;;5040111;28;20038;-78
2022/09/12 06:51:36;;;;;;;21.58;13.43;;;14.20;99.90;;;;;;5024547;28;20030;-77
2022/09/12 06:54:03;;;;;;;21.60;13.50;;;14.20;99.90;;;;;;5021684;28;20021;-77
2022/09/12 06:56:29;;;;;;;22.40;14.18;;;14.30;99.90;;;;;;5023026;28;20092;-78
2022/09/12 06:58:56;;;;;;;22.20;13.27;;;14.30;99.90;;;;;;5022982;28;20033;-75
2022/09/12 07:01:25;;;;;;;19.27;12.98;;;14.30;99.90;;;;;;5022166;28;20043;-79
2022/09/12 07:03:52;;;;;;;23.15;13.07;;;14.20;99.90;;;;;;5024899;28;20033;-78
2022/09/12 07:06:21;;;;;;;21.92;13.35;;;14.30;99.90;;;;;;5021722;28;20037;-78
2022/09/12 07:08:47;;;;;;;22.90;13.27;;;14.20;99.90;;;;;;5020205;28;20406;-78
2022/09/12 07:11:22;;;;;;;21.38;13.70;;;14.20;99.90;;;;;;5023232;28;20076;-79
2022/09/12 07:13:50;;;;;;;19.80;13.25;;;14.30;99.90;;;;;;5056564;28;20513;-78
2022/09/12 07:16:16;;;;;;;20.13;13.52;;;14.30;99.90;;;;;;5023879;28;20063;-79
2022/09/12 07:18:42;;;;;;;20.80;13.45;;;14.40;99.90;;;;;;5016401;28;20034;-76
2022/09/12 07:21:13;;;;;;;22.15;13.27;;;14.50;99.90;;;;;;5026704;28;20045;-78
2022/09/12 07:23:40;;;;;;;22.05;13.88;;;14.60;99.90;;;;;;5055505;28;20421;-78
2022/09/12 07:26:08;;;;;;;22.08;13.27;;;14.80;99.90;;;;;;5037983;28;20456;-79
2022/09/12 07:28:35;;;;;;;21.70;13.93;;;15.20;99.90;;;;;;5022510;28;20032;-78
2022/09/12 07:31:08;;;;;;;23.23;15.10;;;15.50;99.90;;;;;;5056013;28;20079;-76
2022/09/12 07:33:34;;;;;;;17.90;11.95;;;15.70;99.90;;;;;;5034915;28;20276;-79
2022/09/12 07:36:05;;;;;;;22.92;14.80;;;16.10;99.90;;;;;;5023978;28;20036;-77
2022/09/12 07:38:31;;;;;;;23.50;15.48;;;16.20;99.90;;;;;;5022896;28;20021;-79
2022/09/12 07:40:57;;;;;;;22.52;14.68;;;16.40;99.90;;;;;;5012078;28;20103;-78
2022/09/12 07:43:24;;;;;;;25.35;17.38;;;16.30;99.90;;;;;;5015786;28;20380;-78
2022/09/12 07:45:56;;;;;;;22.17;14.68;;;16.30;99.90;;;;;;5038349;28;20450;-76
2022/09/12 07:48:22;;;;;;;21.98;14.73;;;16.20;99.90;;;;;;5022861;28;20029;-78
2022/09/12 07:50:57;;;;;;;24.00;15.75;;;16.10;99.90;;;;;;5022256;28;20096;-77
2022/09/12 07:53:23;;;;;;;23.05;14.93;;;16.20;99.90;;;;;;5022650;28;20109;-78
2022/09/12 07:55:54;;;;;;;24.73;15.50;;;16.40;99.90;;;;;;5009885;28;20144;-77
2022/09/12 07:58:19;;;;;;;28.42;17.55;;;16.60;99.90;;;;;;5021660;28;20026;-76
2022/09/12 08:00:45;;;;;;;24.17;16.67;;;16.70;99.90;;;;;;5020645;28;20414;-77
2022/09/12 08:03:10;;;;;;;21.13;15.40;;;17.00;99.90;;;;;;5019631;28;20098;-77
2022/09/12 08:05:36;;;;;;;24.45;15.40;;;17.30;99.90;;;;;;5022452;28;20041;-76
2022/09/12 08:08:02;;;;;;;22.38;15.90;;;17.40;99.90;;;;;;5023142;28;20155;-78
2022/09/12 08:10:27;;;;;;;26.25;16.88;;;17.60;99.90;;;;;;5017923;28;20103;-77
2022/09/12 08:12:53;;;;;;;22.35;15.00;;;17.70;99.90;;;;;;5035302;28;20029;-77
2022/09/12 08:15:19;;;;;;;19.75;14.32;;;17.80;99.90;;;;;;5022025;28;20462;-76
2022/09/12 08:17:44;;;;;;;23.23;15.82;;;17.70;99.90;;;;;;5020166;28;20112;-76
2022/09/12 08:20:11;;;;;;;24.13;15.88;;;17.50;99.90;;;;;;5019755;28;20041;-77
2022/09/12 08:22:38;;;;;;;17.00;12.77;;;17.70;99.90;;;;;;5023385;28;20037;-77
2022/09/12 08:25:04;;;;;;;18.33;12.82;;;17.60;99.90;;;;;;5033600;28;20029;-78
2022/09/12 08:27:30;;;;;;;18.70;13.23;;;17.80;99.90;;;;;;5053004;28;20044;-79
2022/09/12 08:29:55;;;;;;;18.13;12.75;;;18.00;99.90;;;;;;5022403;28;20025;-79
2022/09/12 08:32:21;;;;;;;17.52;12.93;;;18.30;99.90;;;;;;5023930;28;20402;-78
2022/09/12 08:34:47;;;;;;;19.08;13.65;;;18.40;99.90;;;;;;5021442;28;20363;-80
2022/09/12 08:37:12;;;;;;;18.30;12.38;;;18.40;99.90;;;;;;5027175;28;20685;-78
2022/09/12 08:39:38;;;;;;;18.95;14.40;;;18.50;99.90;;;;;;5022914;28;20095;-79
2022/09/12 08:42:05;;;;;;;19.48;13.38;;;18.40;99.90;;;;;;5020991;28;20040;-78
2022/09/12 08:44:45;;;;;;;20.17;13.93;;;18.80;99.90;;;;;;5054432;28;20029;-78
2022/09/12 08:47:30;;;;;;;19.48;13.90;;;18.90;99.90;;;;;;5020181;28;20540;-79
2022/09/12 08:50:08;;;;;;;15.45;12.27;;;18.80;99.90;;;;;;5054059;28;20390;-78
2022/09/12 08:52:58;;;;;;;20.20;13.90;;;19.00;99.90;;;;;;5021849;28;20037;-78
2022/09/12 08:55:41;;;;;;;16.40;13.02;;;19.00;99.90;;;;;;5018365;28;20029;-79
2022/09/12 08:58:10;;;;;;;17.30;12.57;;;19.20;99.90;;;;;;5020481;28;20068;-77
2022/09/12 09:00:43;;;;;;;18.02;13.10;;;19.30;99.90;;;;;;5021352;28;20046;-79
2022/09/12 09:03:43;;;;;;;17.70;13.05;;;19.70;99.90;;;;;;5054580;28;20411;-77
2022/09/12 09:06:15;;;;;;;;;;;19.70;99.90;;;;;;5005741;28;20029;-79
2022/09/12 09:08:49;;;;;;;15.95;11.55;;;19.80;99.90;;;;;;5022509;28;19955;-80
2022/09/12 09:11:55;;;;;;;17.38;12.38;;;19.90;99.90;;;;;;5020741;28;20049;-79
2022/09/12 09:14:47;;;;;;;14.68;10.90;;;20.00;99.90;;;;;;4946324;28;20038;-78
2022/09/12 09:17:37;;;;;;;17.50;13.02;;;20.00;99.90;;;;;;4945546;28;20555;-78
2022/09/12 09:20:21;;;;;;;19.85;12.88;;;20.10;99.90;;;;;;4946794;28;20158;-79
2022/09/12 09:22:53;;;;;;;17.30;13.13;;;20.30;99.90;;;;;;4962115;28;20504;-79
2022/09/12 09:25:34;;;;;;;16.92;12.45;;;20.50;99.90;;;;;;4942270;28;20049;-79
2022/09/12 09:28:18;;;;;;;12.93;8.82;;;20.50;99.90;;;;;;4962402;28;20062;-78
2022/09/12 09:30:44;;;;;;;14.07;10.00;;;20.90;99.90;;;;;;4956078;28;20122;-78
2022/09/12 09:33:20;;;;;;;13.57;9.43;;;21.10;99.90;;;;;;4929837;28;20031;-76
2022/09/12 09:35:53;;;;;;;14.23;10.52;;;21.30;99.90;;;;;;4964076;28;20399;-77
2022/09/12 09:38:59;;;;;;;11.38;9.20;;;21.50;99.90;;;;;;4963722;28;20045;-79
2022/09/12 09:41:25;;;;;;;14.15;10.82;;;21.50;99.90;;;;;;4943773;28;20168;-78
2022/09/12 09:43:50;;;;;;;12.27;9.30;;;21.50;99.90;;;;;;4949325;28;20619;-77
2022/09/12 09:46:17;;;;;;;13.18;10.57;;;21.50;99.90;;;;;;4955266;28;20022;-80
2022/09/12 09:48:47;;;;;;;13.02;10.07;;;21.20;99.90;;;;;;4964745;28;20121;-79
2022/09/12 09:51:16;;;;;;;19.98;14.25;;;21.20;99.90;;;;;;5024924;28;20040;-79
2022/09/12 09:54:00;;;;;;;12.80;9.63;;;21.40;99.90;;;;;;5022897;28;20428;-80
2022/09/12 09:56:30;;;;;;;12.80;9.05;;;21.50;99.90;;;;;;5026265;28;20037;-78
2022/09/12 09:58:56;;;;;;;12.43;9.75;;;22.00;99.90;;;;;;5027053;28;20021;-78
2022/09/12 10:01:23;;;;;;;10.55;8.73;;;22.00;99.90;;;;;;5010858;28;20473;-81
2022/09/12 10:03:55;;;;;;;11.30;8.35;;;22.20;99.90;;;;;;5023490;28;20091;-82
2022/09/12 10:06:25;;;;;;;11.85;9.50;;;21.80;99.90;;;;;;5035952;28;20116;-79
2022/09/12 10:09:04;;;;;;;8.93;7.97;;;21.90;99.90;;;;;;5024763;28;20034;-77
2022/09/12 10:11:32;;;;;;;8.18;6.50;;;22.40;99.90;;;;;;5037804;28;20088;-80
2022/09/12 10:13:59;;;;;;;8.20;6.18;;;22.50;99.90;;;;;;5020551;28;20094;-77
2022/09/12 10:16:32;;;;;;;7.88;6.30;;;22.80;99.90;;;;;;5023672;28;21995;-81
2022/09/12 10:19:00;;;;;;;5.72;4.10;;;22.60;99.90;;;;;;5034656;28;20029;-80
2022/09/12 10:21:44;;;;;;;5.07;3.63;;;22.70;99.90;;;;;;5020305;28;20486;-78
2022/09/12 10:24:38;;;;;;;7.40;4.97;;;22.80;99.90;;;;;;5056703;28;20103;-81
2022/09/12 10:27:14;;;;;;;7.80;5.30;;;22.70;99.90;;;;;;5038338;28;20030;-77
2022/09/12 10:29:47;;;;;;;5.72;3.67;;;22.80;99.90;;;;;;5023427;28;20045;-79
2022/09/12 10:32:40;;;;;;;6.90;4.97;;;23.40;99.90;;;;;;5024234;28;20025;-80
2022/09/12 10:35:32;;;;;;;7.38;4.70;;;22.90;99.90;;;;;;5024017;28;20500;-80
2022/09/12 10:38:03;;;;;;;3.85;3.28;;;23.10;99.90;;;;;;5015954;28;20534;-80
2022/09/12 10:40:37;;;;;;;3.25;2.95;;;23.50;99.90;;;;;;5024856;28;20045;-79
2022/09/12 10:43:17;;;;;;;3.45;2.78;;;23.70;99.90;;;;;;5024343;28;20026;-81
2022/09/12 10:45:42;;;;;;;4.15;3.28;;;23.70;99.90;;;;;;5023870;28;20119;-78
2022/09/12 10:48:47;;;;;;;4.65;3.38;;;23.40;99.90;;;;;;5024562;28;20191;-80
2022/09/12 10:51:24;;;;;;;3.38;2.53;;;23.80;99.90;;;;;;5005789;28;20100;-80
2022/09/12 10:53:55;;;;;;;2.78;1.88;;;24.00;99.90;;;;;;5024804;28;20036;-78
2022/09/12 10:56:24;;;;;;;2.95;2.10;;;24.20;99.90;;;;;;5023677;28;20033;-80
2022/09/12 10:59:05;;;;;;;4.10;3.03;;;24.20;99.90;;;;;;5024270;28;20541;-80
2022/09/12 11:01:47;;;;;;;3.10;1.90;;;24.10;99.90;;;;;;5023131;28;20030;-81
2022/09/12 11:04:29;;;;;;;4.65;3.85;;;23.80;99.90;;;;;;5023205;28;20036;-80
2022/09/12 11:07:32;;;;;;;6.35;2.15;;;23.40;99.90;;;;;;5024889;28;20030;-78
2022/09/12 11:10:16;;;;;;;2.40;1.60;;;23.90;99.90;;;;;;5023025;28;20121;-79
2022/09/12 11:13:10;;;;;;;2.75;1.35;;;24.30;99.90;;;;;;5023609;28;20037;-77
2022/09/12 11:15:54;;;;;;;2.15;1.05;;;24.30;99.90;;;;;;5021379;28;20033;-79
2022/09/12 11:18:42;;;;;;;1.67;0.77;;;24.30;99.90;;;;;;5023473;28;20482;-80
2022/09/12 11:21:14;;;;;;;2.97;1.95;;;24.20;99.90;;;;;;5021244;28;20041;-78
2022/09/12 11:23:54;;;;;;;2.92;1.42;;;23.90;99.90;;;;;;5024813;28;20454;-79
2022/09/12 11:26:41;;;;;;;3.50;1.30;;;24.20;99.90;;;;;;5023716;28;20494;-79
2022/09/12 11:29:44;;;;;;;2.65;1.15;;;24.20;99.90;;;;;;5023337;28;20048;-81
2022/09/12 11:32:40;;;;;;;2.20;0.85;;;24.30;99.90;;;;;;5023300;28;20030;-80
2022/09/12 11:35:17;;;;;;;2.08;0.85;;;24.30;99.90;;;;;;5021069;28;20030;-78
2022/09/12 11:38:04;;;;;;;1.70;1.00;;;24.20;99.90;;;;;;5022488;28;20456;-81
2022/09/12 11:40:48;;;;;;;3.38;1.00;;;24.40;99.90;;;;;;5024536;28;20072;-79
2022/09/12 11:43:40;;;;;;;1.92;0.80;;;24.40;99.90;;;;;;5059408;28;20323;-78
2022/09/12 11:46:33;;;;;;;1.73;0.80;;;24.80;99.90;;;;;;5039660;28;20024;-78
2022/09/12 11:49:12;;;;;;;3.38;1.10;;;24.90;99.90;;;;;;5022596;28;20432;-80
2022/09/12 11:52:11;;;;;;;1.30;0.82;;;24.70;99.90;;;;;;5037408;28;20034;-78
2022/09/12 11:55:05;;;;;;;1.65;1.15;;;24.60;99.90;;;;;;5023423;28;20033;-78
2022/09/12 11:57:46;;;;;;;1.90;0.95;;;24.70;99.90;;;;;;5022661;28;20486;-80
2022/09/12 12:00:29;;;;;;;2.40;1.48;;;24.70;99.90;;;;;;5016560;28;20061;-77
2022/09/12 12:03:16;;;;;;;1.55;0.70;;;24.50;99.90;;;;;;5022512;28;20025;-79
2022/09/12 12:05:52;;;;;;;1.30;0.60;;;25.00;99.90;;;;;;5022008;28;20029;-78
2022/09/12 12:08:20;;;;;;;2.10;0.63;;;25.10;99.90;;;;;;5023303;28;20104;-79
2022/09/12 12:10:59;;;;;;;1.20;0.65;;;25.10;99.90;;;;;;5022677;28;20104;-79
2022/09/12 12:13:38;;;;;;;1.55;0.65;;;25.10;99.90;;;;;;5021137;28;20457;-80
2022/09/12 12:16:23;;;;;;;1.63;0.95;;;25.20;99.90;;;;;;5023320;28;20105;-79
2022/09/12 12:18:55;;;;;;;1.65;0.65;;;25.20;99.90;;;;;;5031855;28;20037;-82
2022/09/12 12:21:50;;;;;;;1.98;0.80;;;25.10;99.90;;;;;;5023040;28;20734;-80
2022/09/12 12:24:27;;;;;;;2.03;0.70;;;25.00;99.90;;;;;;5032622;28;20168;-77
2022/09/12 12:27:21;;;;;;;1.52;0.80;;;25.10;99.90;;;;;;5023052;28;20041;-77
2022/09/12 12:29:47;;;;;;;1.42;0.73;;;25.10;99.90;;;;;;5022171;28;20483;-80
2022/09/12 12:32:16;;;;;;;1.45;0.60;;;24.60;99.90;;;;;;5022057;28;20033;-81
2022/09/12 12:34:43;;;;;;;;;;;24.80;99.90;;;;;;5022157;28;20021;-80
2022/09/12 12:37:17;;;;;;;1.30;0.52;;;24.90;99.90;;;;;;5021829;28;19909;-80
2022/09/12 12:39:49;;;;;;;1.55;0.80;;;25.20;99.90;;;;;;5020213;28;20033;-78
2022/09/12 12:42:33;;;;;;;0.90;0.50;;;25.10;99.90;;;;;;5037218;28;20033;-78
2022/09/12 12:45:08;;;;;;;1.55;0.60;;;25.10;99.90;;;;;;5022453;28;20102;-79
2022/09/12 12:47:37;;;;;;;1.40;0.63;;;25.30;99.90;;;;;;5016367;28;20044;-79
2022/09/12 12:50:11;;;;;;;1.42;0.50;;;25.30;99.90;;;;;;5021220;28;20053;-80
2022/09/12 12:53:05;;;;;;;2.15;0.60;;;25.30;99.90;;;;;;5022183;28;20133;-80
2022/09/12 12:55:45;;;;;;;1.30;0.50;;;25.00;99.90;;;;;;5021744;28;20484;-80
2022/09/12 12:58:38;;;;;;;1.73;0.60;;;24.70;99.90;;;;;;5018012;28;20168;-78
2022/09/12 13:01:03;;;;;;;1.45;0.70;;;24.90;99.90;;;;;;5040286;28;20030;-78
2022/09/12 13:03:32;;;;;;;1.60;0.80;;;25.00;99.90;;;;;;5023762;28;20021;-79
2022/09/12 13:06:04;;;;;;;1.23;0.52;;;24.60;99.90;;;;;;5025638;28;20037;-78
2022/09/12 13:08:33;;;;;;;1.30;0.55;;;25.10;99.90;;;;;;5024124;28;20025;-78